Aérodrome :
LOGIN :

S'inscrire | Disclaimer

   EN    FR    IT 

 










Légende :    VFR   VFR Marginal   IFR   IFR Intensif   IFR Très Intensif
Visi : 
Plafond : 
>= 8 km
>= 3000ft
5 à 8 km
1000 à 3000 ft
1500m à 5 km
500 à 1000 ft
800 à 1500m
200 à 500 ft
< 800m
< 200 ft
Symboles :   Orages  Brouillard  Fortes neiges  Fortes précipitations  Vent > 20 kt
SIGMETs :   Divers  Orages  Givrage  Turbulence  Onde Orograph.  Cendres Volcan.







- Altitude de l'aérodrome : 1106 ft
- Voir les cartes d'approche


LFSO - Nancy / Ochey

DERNIER METAR :
  • 191200Z AUTO 25008KT 220V300 9999 FEW041 BKN058 OVC068 24/13 Q1017 NOSIG

METARs EXPIRÉS :
  • 191130Z AUTO 26010KT 230V300 9999 FEW034 BKN060 OVC070 23/14 Q1017 NOSIG
  • 191100Z AUTO 26005KT 220V320 CAVOK 23/14 Q1017 NOSIG
  • 191030Z AUTO 30007KT 9999 FEW032 OVC060 22/14 Q1017 NOSIG
  • 191000Z AUTO 26010KT 230V290 9999 BKN034 BKN044 BKN068 22/13 Q1017 NOSIG
  • 190930Z AUTO 29007KT 260V330 9999 BKN031 BKN066 BKN100 23/14 Q1017 NOSIG

TAF TAF LFSO
Valide du 19 à 09h jusqu'au 20 à 09h UTC


190800Z 1909/2009 25005KT 9999 BKN030
FM191500 25010KT CAVOK
BECMG 1918/1919 33005KT
BECMG 2006/2008 21010KT
Pas de NOTAMs connus pour ce terrain.



MET'MAP, la Météo Aéronautique d'un coup d'oeil ! - Copyright ORBIFLY Décembre 2007 - Disclaimer

ORBIFLY MET'MAP TEAM :

Programmation & Développement : Alexandra Zaïnal
Conception & Développement : Baudouin d'Aumeries
Co-Programmation & Développement : Marc-Olivier Méhu
Soutien technique & logistique : Manuel Goepfert

Contact : metmap@orbifly.com




SOURCES & CREDITS :

   NOAA